Kitty C — 2EIQ6 — position and weather

sailwx.info

Track history (hours):
 
Tides and Currents Weather Stations Pressure Air Temp Water Temp Dewpoint Dewpoint Depression Visibility Wind Speed Wind Dir Waves Ship Positions

Kitty C

Last reported at 2016-Feb-05 06:26 UTC. Time now 2016-Feb-06 13:37 UTC.
Position N 35°55' W 005°14'.

Length 106 m; draft 6.9 m.

Type: Cargo ship. MMSI: 235085464.

Date/timePositionNaut miles runAvg speedWind from/ knotsBaromVisibWave heightAir tempDewpointWater temp
2016-Feb-05 06:26N 35°55' W 005°14'5 5.3
2016-Feb-05 05:33N 35°54' W 005°19'0 0.0
2016-Feb-05 04:32N 35°54' W 005°19'0 0.0
2016-Feb-05 03:30N 35°54' W 005°19'0 0.0
2016-Feb-05 02:33N 35°54' W 005°19'0 0.0
2016-Feb-05 01:33N 35°54' W 005°19'0 0.0
2016-Feb-05 00:32N 35°54' W 005°19'2 2.4
2016-Feb-04 23:33N 35°56' W 005°21'7 7.3
2016-Feb-04 22:33N 35°56' W 005°30'123 6.5
2016-Feb-04 03:33N 36°17' W 008°01'9 8.7
2016-Feb-04 02:31N 36°19' W 008°12'9 9.6
2016-Feb-04 01:34N 36°22' W 008°23'9 9.3
2016-Feb-04 00:33N 36°24' W 008°34'10 9.4
2016-Feb-03 23:31N 36°26' W 008°46'10 9.8
2016-Feb-03 22:31N 36°29' W 008°57'10 9.8
2016-Feb-03 21:30N 36°32' W 009°09'10 9.6
2016-Feb-03 20:31N 36°36' W 009°20'10 9.7
2016-Feb-03 19:31N 36°43' W 009°28'9 9.3
2016-Feb-03 18:31N 36°51' W 009°34'1010.2
2016-Feb-03 17:31N 37°01' W 009°37'9 9.1
2016-Feb-03 16:33N 37°09' W 009°39'1110.6
2016-Feb-03 15:28N 37°21' W 009°42'1010.3
2016-Feb-03 14:28N 37°31' W 009°45'1010.2
2016-Feb-03 13:28N 37°41' W 009°48'1010.2
2016-Feb-03 12:28N 37°51' W 009°51'1010.1
2016-Feb-03 11:28N 38°00' W 009°54'9 9.8
2016-Feb-03 10:31N 38°09' W 009°57'10 9.9
2016-Feb-03 09:33N 38°19' W 009°59'1110.5
2016-Feb-03 08:32N 38°29' W 010°02'1010.4
2016-Feb-03 07:33N 38°39' W 010°05'1010.1
2016-Feb-03 06:33N 38°49' W 010°06'1010.0
2016-Feb-03 05:32N 38°59' W 010°06'10 9.9
2016-Feb-03 04:33N 39°09' W 010°06'1110.7
2016-Feb-03 03:31N 39°20' W 010°06'1010.4
2016-Feb-03 02:31N 39°31' W 010°06'1010.3
2016-Feb-03 01:31N 39°41' W 010°06'10 9.8
2016-Feb-03 00:31N 39°51' W 010°06'1111.1
2016-Feb-02 23:31N 40°02' W 010°06'10 9.8
2016-Feb-02 22:28N 40°12' W 010°06'1010.0
2016-Feb-02 21:28N 40°22' W 010°06'910.5
2016-Feb-02 20:34N 40°32' W 010°06'1210.6
2016-Feb-02 19:28N 40°43' W 010°06'1010.0
2016-Feb-02 18:25N 40°54' W 010°05'1010.5
2016-Feb-02 17:25N 41°04' W 010°06'910.3
2016-Feb-02 16:31N 41°13' W 010°06'1010.1
2016-Feb-02 15:31N 41°24' W 010°06'10 9.9
2016-Feb-02 14:28N 41°34' W 010°05'1010.1
2016-Feb-02 13:29N 41°44' W 010°05'9 9.2
2016-Feb-02 12:31N 41°53' W 010°06'  
2016-Jan-28 19:33N 50°22' W 004°08'0 0.0
2016-Jan-28 18:32N 50°22' W 004°08'0 0.0
2016-Jan-28 17:31N 50°22' W 004°08'0 0.0
2016-Jan-28 16:32N 50°22' W 004°08'0 0.0
2016-Jan-28 15:32N 50°22' W 004°08'0 0.0
2016-Jan-28 14:32N 50°22' W 004°08'0 0.0
2016-Jan-28 13:31N 50°22' W 004°08'0 0.0
2016-Jan-28 12:32N 50°22' W 004°08'0 0.0
2016-Jan-28 11:31N 50°22' W 004°08'0 0.0
2016-Jan-28 10:32N 50°22' W 004°08'53 3.5
2016-Jan-27 19:25N 50°38' W 005°26'3 3.2
2016-Jan-27 18:33N 50°40' W 005°23'3 3.2
2016-Jan-27 17:33N 50°42' W 005°19'4 3.7
2016-Jan-27 16:33N 50°44' W 005°15'  
Track history (hours):
 
Tides and Currents Weather Stations Pressure Air Temp Water Temp Dewpoint Dewpoint Depression Visibility Wind Speed Wind Dir Waves Ship Positions

Kitty C

Last reported at 2016-Feb-05 06:26 UTC. Time now 2016-Feb-06 13:37 UTC.
Position N 35°55' W 005°14'.

Length 106 m; draft 6.9 m.

Type: Cargo ship. MMSI: 235085464.

Date/timePositionNaut miles runAvg speedWind from/ knotsBaromVisibWave heightAir tempDewpointWater temp
2016-Feb-05 06:26N 35°55' W 005°14'5 5.3
2016-Feb-05 05:33N 35°54' W 005°19'0 0.0
2016-Feb-05 04:32N 35°54' W 005°19'0 0.0
2016-Feb-05 03:30N 35°54' W 005°19'0 0.0
2016-Feb-05 02:33N 35°54' W 005°19'0 0.0
2016-Feb-05 01:33N 35°54' W 005°19'0 0.0
2016-Feb-05 00:32N 35°54' W 005°19'2 2.4
2016-Feb-04 23:33N 35°56' W 005°21'7 7.3
2016-Feb-04 22:33N 35°56' W 005°30'123 6.5
2016-Feb-04 03:33N 36°17' W 008°01'9 8.7
2016-Feb-04 02:31N 36°19' W 008°12'9 9.6
2016-Feb-04 01:34N 36°22' W 008°23'9 9.3
2016-Feb-04 00:33N 36°24' W 008°34'10 9.4
2016-Feb-03 23:31N 36°26' W 008°46'10 9.8
2016-Feb-03 22:31N 36°29' W 008°57'10 9.8
2016-Feb-03 21:30N 36°32' W 009°09'10 9.6
2016-Feb-03 20:31N 36°36' W 009°20'10 9.7
2016-Feb-03 19:31N 36°43' W 009°28'9 9.3
2016-Feb-03 18:31N 36°51' W 009°34'1010.2
2016-Feb-03 17:31N 37°01' W 009°37'9 9.1
2016-Feb-03 16:33N 37°09' W 009°39'1110.6
2016-Feb-03 15:28N 37°21' W 009°42'1010.3
2016-Feb-03 14:28N 37°31' W 009°45'1010.2
2016-Feb-03 13:28N 37°41' W 009°48'1010.2
2016-Feb-03 12:28N 37°51' W 009°51'1010.1
2016-Feb-03 11:28N 38°00' W 009°54'9 9.8
2016-Feb-03 10:31N 38°09' W 009°57'10 9.9
2016-Feb-03 09:33N 38°19' W 009°59'1110.5
2016-Feb-03 08:32N 38°29' W 010°02'1010.4
2016-Feb-03 07:33N 38°39' W 010°05'1010.1
2016-Feb-03 06:33N 38°49' W 010°06'1010.0
2016-Feb-03 05:32N 38°59' W 010°06'10 9.9
2016-Feb-03 04:33N 39°09' W 010°06'1110.7
2016-Feb-03 03:31N 39°20' W 010°06'1010.4
2016-Feb-03 02:31N 39°31' W 010°06'1010.3
2016-Feb-03 01:31N 39°41' W 010°06'10 9.8
2016-Feb-03 00:31N 39°51' W 010°06'1111.1
2016-Feb-02 23:31N 40°02' W 010°06'10 9.8
2016-Feb-02 22:28N 40°12' W 010°06'1010.0
2016-Feb-02 21:28N 40°22' W 010°06'910.5
2016-Feb-02 20:34N 40°32' W 010°06'1210.6
2016-Feb-02 19:28N 40°43' W 010°06'1010.0
2016-Feb-02 18:25N 40°54' W 010°05'1010.5
2016-Feb-02 17:25N 41°04' W 010°06'910.3
2016-Feb-02 16:31N 41°13' W 010°06'1010.1
2016-Feb-02 15:31N 41°24' W 010°06'10 9.9
2016-Feb-02 14:28N 41°34' W 010°05'1010.1
2016-Feb-02 13:29N 41°44' W 010°05'9 9.2
2016-Feb-02 12:31N 41°53' W 010°06'  
2016-Jan-28 19:33N 50°22' W 004°08'0 0.0
2016-Jan-28 18:32N 50°22' W 004°08'0 0.0
2016-Jan-28 17:31N 50°22' W 004°08'0 0.0
2016-Jan-28 16:32N 50°22' W 004°08'0 0.0
2016-Jan-28 15:32N 50°22' W 004°08'0 0.0
2016-Jan-28 14:32N 50°22' W 004°08'0 0.0
2016-Jan-28 13:31N 50°22' W 004°08'0 0.0
2016-Jan-28 12:32N 50°22' W 004°08'0 0.0
2016-Jan-28 11:31N 50°22' W 004°08'0 0.0
2016-Jan-28 10:32N 50°22' W 004°08'53 3.5
2016-Jan-27 19:25N 50°38' W 005°26'3 3.2
2016-Jan-27 18:33N 50°40' W 005°23'3 3.2
2016-Jan-27 17:33N 50°42' W 005°19'4 3.7
2016-Jan-27 16:33N 50°44' W 005°15'  

Dump ship's entire track history